Les Alyzees — FI8710 — position and weather

sailwx.info

Track history (hours):
 
Tides and Currents Weather Stations Pressure Air Temp Water Temp Dewpoint Dewpoint Depression Visibility Wind Speed Wind Dir Waves Ship Positions

Les Alyzees

Last reported at 2017-Dec-23 14:04 UTC. Time now 2018-Jan-20 01:41 UTC.
Position N 48°38' W 002°29'.
Warning: this ship's position is 27 days out of date.

Length 15 m.

Type: Fishing. MMSI: 227323270.

Date/timePositionNaut miles runAvg speedWind from/ knotsBaromVisibWave heightAir tempDewpointWater temp
2017-Dec-23 14:04N 48°38' W 002°29'0 0.8
2017-Dec-23 14:00N 48°38' W 002°29'0 0.2
2017-Dec-23 13:26N 48°38' W 002°29'4 8.3
2017-Dec-23 13:00N 48°41' W 002°26'1 2.0
2017-Dec-23 12:24N 48°42' W 002°28'0 0.8
2017-Dec-23 11:57N 48°42' W 002°27'0 0.2
2017-Dec-23 11:24N 48°42' W 002°28'0 1.1
2017-Dec-23 11:00N 48°42' W 002°27'0 0.9
2017-Dec-23 10:27N 48°42' W 002°27'0 0.4
2017-Dec-23 09:58N 48°42' W 002°27'0 0.5
2017-Dec-23 09:25N 48°42' W 002°27'1 1.3
2017-Dec-23 09:00N 48°42' W 002°28'0 0.7
2017-Dec-23 08:27N 48°42' W 002°27'0 0.5
2017-Dec-23 07:59N 48°42' W 002°28'0 0.2
2017-Dec-23 07:19N 48°42' W 002°27'0 0.3
2017-Dec-23 06:38N 48°42' W 002°28'1 8.1
2017-Dec-23 06:30N 48°43' W 002°29'2 2.0
2017-Dec-23 05:40N 48°42' W 002°27'0 2.0
2017-Dec-23 05:30N 48°42' W 002°27'0 0.7
2017-Dec-23 04:58N 48°42' W 002°28'1 1.7
2017-Dec-23 04:24N 48°41' W 002°27'3 7.3
2017-Dec-23 03:59N 48°39' W 002°30'1 0.0
2017-Dec-21 16:24N 48°38' W 002°29'2 4.7
2017-Dec-21 15:57N 48°40' W 002°26'4 9.2
2017-Dec-21 15:30N 48°41' W 002°21'4 8.4
2017-Dec-21 14:59N 48°42' W 002°14'1 1.0
2017-Dec-21 14:25N 48°42' W 002°15'1 2.9
2017-Dec-21 14:00N 48°41' W 002°15'0 0.6
2017-Dec-21 13:30N 48°41' W 002°16'1 2.8
2017-Dec-21 13:00N 48°42' W 002°15'0 0.4
2017-Dec-21 12:30N 48°42' W 002°15'0 0.6
2017-Dec-21 12:00N 48°42' W 002°15'0 0.2
2017-Dec-21 11:19N 48°42' W 002°15'0 0.3
2017-Dec-21 10:46N 48°42' W 002°15'0 1.1
2017-Dec-21 10:30N 48°42' W 002°15'1 0.8
2017-Dec-21 09:53N 48°42' W 002°15'0 0.0
2017-Dec-21 05:19N 48°42' W 002°15'1 1.6
2017-Dec-21 04:53N 48°42' W 002°14'3 6.4
2017-Dec-21 04:30N 48°42' W 002°18'5 9.7
2017-Dec-21 03:58N 48°40' W 002°26'3 0.3
2017-Dec-20 14:48N 48°39' W 002°30'3 4.9
2017-Dec-20 14:11N 48°42' W 002°30'5 1.2
2017-Dec-20 09:43N 48°45' W 002°23'1 4.7
2017-Dec-20 09:30N 48°44' W 002°23'1 1.5
2017-Dec-20 08:45N 48°43' W 002°23'0 0.6
2017-Dec-20 08:30N 48°43' W 002°24'1 1.1
2017-Dec-20 07:58N 48°44' W 002°24'1 0.7
2017-Dec-20 06:44N 48°43' W 002°25'0 0.3
2017-Dec-20 06:12N 48°43' W 002°26'1 3.5
2017-Dec-20 06:00N 48°44' W 002°26'0 0.6
2017-Dec-20 05:30N 48°44' W 002°26'3 5.1
2017-Dec-20 04:55N 48°42' W 002°27'4 7.3
2017-Dec-20 04:26N 48°38' W 002°30'1 1.8
2017-Dec-20 04:00N 48°38' W 002°29'0 0.0
2017-Dec-19 11:39N 48°38' W 002°29'1 3.0
2017-Dec-19 11:25N 48°38' W 002°30'3 7.4
2017-Dec-19 10:58N 48°41' W 002°27'3 5.0
2017-Dec-19 10:25N 48°44' W 002°26'2 3.9
2017-Dec-19 10:00N 48°46' W 002°25'1 1.6
2017-Dec-19 09:30N 48°45' W 002°24'0 0.9
2017-Dec-19 08:59N 48°45' W 002°23'2 3.3
2017-Dec-19 08:29N 48°44' W 002°23'1 1.2
2017-Dec-19 07:57N 48°43' W 002°23'0 0.0
2017-Dec-18 07:10N 48°43' W 002°23'  
Track history (hours):
 
Tides and Currents Weather Stations Pressure Air Temp Water Temp Dewpoint Dewpoint Depression Visibility Wind Speed Wind Dir Waves Ship Positions

Les Alyzees

Last reported at 2017-Dec-23 14:04 UTC. Time now 2018-Jan-20 01:41 UTC.
Position N 48°38' W 002°29'.
Warning: this ship's position is 27 days out of date.

Length 15 m.

Type: Fishing. MMSI: 227323270.

Date/timePositionNaut miles runAvg speedWind from/ knotsBaromVisibWave heightAir tempDewpointWater temp
2017-Dec-23 14:04N 48°38' W 002°29'0 0.8
2017-Dec-23 14:00N 48°38' W 002°29'0 0.2
2017-Dec-23 13:26N 48°38' W 002°29'4 8.3
2017-Dec-23 13:00N 48°41' W 002°26'1 2.0
2017-Dec-23 12:24N 48°42' W 002°28'0 0.8
2017-Dec-23 11:57N 48°42' W 002°27'0 0.2
2017-Dec-23 11:24N 48°42' W 002°28'0 1.1
2017-Dec-23 11:00N 48°42' W 002°27'0 0.9
2017-Dec-23 10:27N 48°42' W 002°27'0 0.4
2017-Dec-23 09:58N 48°42' W 002°27'0 0.5
2017-Dec-23 09:25N 48°42' W 002°27'1 1.3
2017-Dec-23 09:00N 48°42' W 002°28'0 0.7
2017-Dec-23 08:27N 48°42' W 002°27'0 0.5
2017-Dec-23 07:59N 48°42' W 002°28'0 0.2
2017-Dec-23 07:19N 48°42' W 002°27'0 0.3
2017-Dec-23 06:38N 48°42' W 002°28'1 8.1
2017-Dec-23 06:30N 48°43' W 002°29'2 2.0
2017-Dec-23 05:40N 48°42' W 002°27'0 2.0
2017-Dec-23 05:30N 48°42' W 002°27'0 0.7
2017-Dec-23 04:58N 48°42' W 002°28'1 1.7
2017-Dec-23 04:24N 48°41' W 002°27'3 7.3
2017-Dec-23 03:59N 48°39' W 002°30'1 0.0
2017-Dec-21 16:24N 48°38' W 002°29'2 4.7
2017-Dec-21 15:57N 48°40' W 002°26'4 9.2
2017-Dec-21 15:30N 48°41' W 002°21'4 8.4
2017-Dec-21 14:59N 48°42' W 002°14'1 1.0
2017-Dec-21 14:25N 48°42' W 002°15'1 2.9
2017-Dec-21 14:00N 48°41' W 002°15'0 0.6
2017-Dec-21 13:30N 48°41' W 002°16'1 2.8
2017-Dec-21 13:00N 48°42' W 002°15'0 0.4
2017-Dec-21 12:30N 48°42' W 002°15'0 0.6
2017-Dec-21 12:00N 48°42' W 002°15'0 0.2
2017-Dec-21 11:19N 48°42' W 002°15'0 0.3
2017-Dec-21 10:46N 48°42' W 002°15'0 1.1
2017-Dec-21 10:30N 48°42' W 002°15'1 0.8
2017-Dec-21 09:53N 48°42' W 002°15'0 0.0
2017-Dec-21 05:19N 48°42' W 002°15'1 1.6
2017-Dec-21 04:53N 48°42' W 002°14'3 6.4
2017-Dec-21 04:30N 48°42' W 002°18'5 9.7
2017-Dec-21 03:58N 48°40' W 002°26'3 0.3
2017-Dec-20 14:48N 48°39' W 002°30'3 4.9
2017-Dec-20 14:11N 48°42' W 002°30'5 1.2
2017-Dec-20 09:43N 48°45' W 002°23'1 4.7
2017-Dec-20 09:30N 48°44' W 002°23'1 1.5
2017-Dec-20 08:45N 48°43' W 002°23'0 0.6
2017-Dec-20 08:30N 48°43' W 002°24'1 1.1
2017-Dec-20 07:58N 48°44' W 002°24'1 0.7
2017-Dec-20 06:44N 48°43' W 002°25'0 0.3
2017-Dec-20 06:12N 48°43' W 002°26'1 3.5
2017-Dec-20 06:00N 48°44' W 002°26'0 0.6
2017-Dec-20 05:30N 48°44' W 002°26'3 5.1
2017-Dec-20 04:55N 48°42' W 002°27'4 7.3
2017-Dec-20 04:26N 48°38' W 002°30'1 1.8
2017-Dec-20 04:00N 48°38' W 002°29'0 0.0
2017-Dec-19 11:39N 48°38' W 002°29'1 3.0
2017-Dec-19 11:25N 48°38' W 002°30'3 7.4
2017-Dec-19 10:58N 48°41' W 002°27'3 5.0
2017-Dec-19 10:25N 48°44' W 002°26'2 3.9
2017-Dec-19 10:00N 48°46' W 002°25'1 1.6
2017-Dec-19 09:30N 48°45' W 002°24'0 0.9
2017-Dec-19 08:59N 48°45' W 002°23'2 3.3
2017-Dec-19 08:29N 48°44' W 002°23'1 1.2
2017-Dec-19 07:57N 48°43' W 002°23'0 0.0
2017-Dec-18 07:10N 48°43' W 002°23'  

Dump ship's entire track history